FK-0027 weather

Public forecast

Using degrees Celsius for public forecast. Weather courtesy of forecast.io.

Closest aviation weather report (METAR) to Bleaker Island Airport

Closest report is Mount Pleasant Airport, 26.4 nm (48.8 km) NE. Retrieved 2020/08/13 06:50 UTC (1 hour ago):

EGYP 130650Z 24010KT 9999 FEW008 BKN030 BKN120 01/01 Q0988

Closest aviation forecast (TAF) to Bleaker Island Airport

Closest forecast is Mount Pleasant Airport, 26.4 nm (48.8 km) NE. Retrieved 2020/08/13 09:48 UTC (0 seconds ago):

TAF EGYP 130745Z 1309/1403 22010KT 9999 BKN025 PROB40 TEMPO 1309/1312 2000 SHSN SCT004 BKN007CB PROB30 TEMPO 1312/1403 4000 -SHSN SCT014 BKN020